createdAt,value
2019-01-02T00:01:40.261Z,23.77
2019-01-02T00:04:29.167Z,16.50
2019-01-02T00:07:17.574Z,18.40
2019-01-02T00:10:06.182Z,27.17
2019-01-02T00:12:54.166Z,20.50
2019-01-02T00:15:43.686Z,17.13
2019-01-02T00:18:32.253Z,16.53
2019-01-02T00:21:20.650Z,27.93
2019-01-02T00:24:09.492Z,20.20
2019-01-02T00:27:03.087Z,20.97
2019-01-02T00:29:54.543Z,27.20
2019-01-02T00:32:42.947Z,23.93
2019-01-02T00:35:31.959Z,17.20
2019-01-02T00:38:20.518Z,27.17
2019-01-02T00:41:09.727Z,17.03
2019-01-02T00:43:57.401Z,24.40
2019-01-02T00:46:46.246Z,19.30
2019-01-02T00:49:36.662Z,21.50
2019-01-02T00:52:25.148Z,18.70
2019-01-02T00:55:13.814Z,15.63
2019-01-02T00:58:01.806Z,19.70
2019-01-02T01:00:51.419Z,19.27
2019-01-02T01:03:59.691Z,29.03
2019-01-02T01:06:56.261Z,21.27
2019-01-02T01:09:46.444Z,24.40
2019-01-02T01:12:35.222Z,22.97
2019-01-02T01:15:24.491Z,18.03
2019-01-02T01:18:12.785Z,18.23
2019-01-02T01:21:02.266Z,17.70
2019-01-02T01:23:50.304Z,19.43
2019-01-02T01:26:38.481Z,25.30
2019-01-02T01:29:27.606Z,27.60
2019-01-02T01:32:17.212Z,19.70
2019-01-02T01:35:07.387Z,29.23
2019-01-02T01:37:57.114Z,20.23
2019-01-02T01:40:45.553Z,20.73
2019-01-02T01:43:34.089Z,30.07
2019-01-02T01:46:23.434Z,14.27
2019-01-02T01:49:12.141Z,21.57
2019-01-02T01:52:00.862Z,19.97
2019-01-02T01:54:50.160Z,17.90
2019-01-02T01:57:38.727Z,21.93
2019-01-02T02:00:27.481Z,19.83
2019-01-02T02:03:15.847Z,20.17
2019-01-02T02:06:04.081Z,17.43
2019-01-02T02:08:52.890Z,17.73
2019-01-02T02:11:41.196Z,16.90
2019-01-02T02:14:29.193Z,24.23
2019-01-02T02:17:17.723Z,22.40
2019-01-02T02:20:07.699Z,14.63
2019-01-02T02:22:57.094Z,16.10
2019-01-02T02:25:46.394Z,13.77
2019-01-02T02:28:35.178Z,19.40
2019-01-02T02:31:23.750Z,26.43
2019-01-02T02:34:11.775Z,20.97
2019-01-02T02:37:00.322Z,25.67
2019-01-02T02:39:48.979Z,15.40
2019-01-02T02:42:38.459Z,18.97
2019-01-02T02:45:28.090Z,17.67
2019-01-02T02:48:17.886Z,14.90
2019-01-02T02:51:06.595Z,22.70
2019-01-02T02:53:55.623Z,19.00
2019-01-02T02:56:44.500Z,10.27
2019-01-02T02:59:33.450Z,15.47
2019-01-02T03:02:22.857Z,18.00
2019-01-02T03:05:12.368Z,17.40
2019-01-02T03:08:01.334Z,26.30
2019-01-02T03:10:50.377Z,15.43
2019-01-02T03:13:39.190Z,22.37
2019-01-02T03:16:28.256Z,26.43
2019-01-02T03:19:17.114Z,28.00
2019-01-02T03:22:06.010Z,28.60
2019-01-02T03:24:54.924Z,20.43
2019-01-02T03:27:43.220Z,24.00
2019-01-02T03:30:32.243Z,22.80
2019-01-02T03:33:20.998Z,26.93
2019-01-02T03:36:10.600Z,25.27
2019-01-02T03:38:59.340Z,17.70
2019-01-02T03:41:47.893Z,26.40
2019-01-02T03:44:37.327Z,22.47
2019-01-02T03:47:25.028Z,35.70
2019-01-02T03:50:16.017Z,18.73
2019-01-02T03:53:04.500Z,22.40
2019-01-02T03:55:53.332Z,18.13
2019-01-02T03:58:41.630Z,26.37
2019-01-02T04:01:30.514Z,21.37
2019-01-02T04:04:20.129Z,19.67
2019-01-02T04:07:08.330Z,18.10
2019-01-02T04:09:56.697Z,20.00
2019-01-02T04:12:44.854Z,25.17
2019-01-02T04:15:32.656Z,26.30
2019-01-02T04:18:21.435Z,24.17
2019-01-02T04:21:09.459Z,23.90
2019-01-02T04:23:59.703Z,28.80
2019-01-02T04:26:47.336Z,36.63
2019-01-02T04:29:35.679Z,25.93
2019-01-02T04:32:24.246Z,22.37
2019-01-02T04:35:12.764Z,25.30
2019-01-02T04:38:00.582Z,20.13
2019-01-02T04:40:48.810Z,27.90
2019-01-02T04:43:36.903Z,19.43
2019-01-02T04:46:25.934Z,23.87
2019-01-02T04:49:14.550Z,22.30
2019-01-02T04:52:03.718Z,25.63
2019-01-02T04:54:51.570Z,22.87
2019-01-02T04:57:39.656Z,18.90
2019-01-02T05:00:27.326Z,24.57
2019-01-02T05:03:15.590Z,19.90
2019-01-02T05:06:03.988Z,20.27
2019-01-02T05:08:51.894Z,23.87
2019-01-02T05:11:40.066Z,20.73
2019-01-02T05:14:29.042Z,20.47
2019-01-02T05:17:17.610Z,24.47
2019-01-02T05:20:07.217Z,23.60
2019-01-02T05:22:55.724Z,18.37
2019-01-02T05:25:44.995Z,23.73
2019-01-02T05:28:33.151Z,16.63
2019-01-02T05:31:21.334Z,22.13
2019-01-02T05:34:09.637Z,17.93
2019-01-02T05:36:58.281Z,27.37
2019-01-02T05:39:47.418Z,22.97
2019-01-02T05:42:35.434Z,19.67
2019-01-02T05:45:24.002Z,23.50
2019-01-02T05:48:12.359Z,20.13
2019-01-02T05:51:00.527Z,28.43
2019-01-02T05:53:49.526Z,32.53
2019-01-02T05:56:38.659Z,37.90
2019-01-02T05:59:28.435Z,19.13
2019-01-02T06:02:16.381Z,28.23
2019-01-02T06:05:04.842Z,19.73
2019-01-02T06:07:53.287Z,28.17
2019-01-02T06:10:42.394Z,24.97
2019-01-02T06:13:29.890Z,24.43
2019-01-02T06:16:18.239Z,19.87
2019-01-02T06:19:06.290Z,30.03
2019-01-02T06:21:55.171Z,26.87
2019-01-02T06:24:43.429Z,23.70
2019-01-02T06:27:32.850Z,24.83
2019-01-02T06:30:21.182Z,19.70
2019-01-02T06:33:10.384Z,29.57
2019-01-02T06:35:58.646Z,25.77
2019-01-02T06:38:46.910Z,29.30
2019-01-02T06:41:35.122Z,24.90
2019-01-02T06:44:23.526Z,18.60
2019-01-02T06:47:12.026Z,19.20
2019-01-02T06:50:00.656Z,18.10
2019-01-02T06:52:49.076Z,25.23
2019-01-02T06:55:38.425Z,26.17
2019-01-02T06:58:26.278Z,31.37
2019-01-02T07:01:14.586Z,23.63
2019-01-02T07:04:04.035Z,29.10
2019-01-02T07:06:52.062Z,27.17
2019-01-02T07:09:40.751Z,23.20
2019-01-02T07:12:28.554Z,27.93
2019-01-02T07:15:17.647Z,23.17
2019-01-02T07:18:06.147Z,16.13
2019-01-02T07:20:54.974Z,32.97
2019-01-02T07:23:43.246Z,26.27
2019-01-02T07:26:32.018Z,23.20
2019-01-02T07:29:20.808Z,19.23
2019-01-02T07:32:09.323Z,23.83
2019-01-02T07:35:34.199Z,18.50
2019-01-02T07:39:11.546Z,26.50
2019-01-02T07:42:55.831Z,21.80
2019-01-02T07:46:15.282Z,18.90
2019-01-02T07:49:30.435Z,17.93
2019-01-02T07:52:49.971Z,28.17
2019-01-02T07:56:19.790Z,26.17
2019-01-02T07:59:45.517Z,23.40
2019-01-02T08:02:58.920Z,24.53
2019-01-02T08:06:28.059Z,23.27
2019-01-02T08:09:50.534Z,28.27
2019-01-02T08:13:32.607Z,23.57
2019-01-02T08:16:56.918Z,27.50
2019-01-02T08:20:21.597Z,22.50
2019-01-02T08:23:33.203Z,24.90
2019-01-02T08:26:55.855Z,21.10
2019-01-02T08:30:15.329Z,27.43
2019-01-02T08:33:54.949Z,19.37
2019-01-02T08:37:57.364Z,20.20
2019-01-02T08:41:29.694Z,17.73
2019-01-02T08:44:56.882Z,17.97
2019-01-02T08:48:22.748Z,19.83
2019-01-02T08:51:51.251Z,23.70
2019-01-02T08:55:05.198Z,23.03
2019-01-02T08:58:30.310Z,19.77
2019-01-02T09:01:45.527Z,25.70
2019-01-02T09:05:00.081Z,17.53
2019-01-02T09:08:32.578Z,16.30
2019-01-02T09:12:04.532Z,15.57
2019-01-02T09:15:28.039Z,21.53
2019-01-02T09:19:09.203Z,15.30
2019-01-02T09:22:24.530Z,16.50
2019-01-02T09:26:05.126Z,18.63
2019-01-02T09:29:22.889Z,15.33
2019-01-02T09:32:28.330Z,17.90
2019-01-02T09:35:53.318Z,16.80
2019-01-02T09:38:56.050Z,15.27
2019-01-02T09:42:33.231Z,21.97
2019-01-02T09:46:05.302Z,16.57
2019-01-02T09:49:15.861Z,18.03
2019-01-02T09:52:47.175Z,17.63
2019-01-02T09:56:40.520Z,18.63
2019-01-02T10:00:01.484Z,20.17
2019-01-02T10:03:24.741Z,17.57
2019-01-02T10:06:31.896Z,17.03
2019-01-02T10:10:04.899Z,14.80
2019-01-02T10:13:30.374Z,25.57
2019-01-02T10:16:43.794Z,18.83
2019-01-02T10:20:03.207Z,16.17
2019-01-02T10:23:31.622Z,17.43
2019-01-02T10:26:44.795Z,13.27
2019-01-02T10:30:15.119Z,18.00
2019-01-02T10:33:41.823Z,17.37
2019-01-02T10:36:59.898Z,23.07
2019-01-02T10:40:35.688Z,16.73
2019-01-02T10:43:59.386Z,17.70
2019-01-02T10:47:20.536Z,19.53
2019-01-02T10:50:34.370Z,18.77
2019-01-02T10:54:10.195Z,15.10
2019-01-02T10:57:12.730Z,15.77
2019-01-02T11:00:28.279Z,15.77
2019-01-02T11:03:47.318Z,16.43
2019-01-02T11:07:22.446Z,23.23
2019-01-02T11:10:37.695Z,17.30
2019-01-02T11:14:05.598Z,22.20
2019-01-02T11:17:19.239Z,19.47
2019-01-02T11:21:15.694Z,18.00
2019-01-02T11:24:52.137Z,30.00
2019-01-02T11:28:24.595Z,12.73
2019-01-02T11:31:40.445Z,17.13
2019-01-02T11:35:00.914Z,16.97
2019-01-02T11:38:20.946Z,13.03
2019-01-02T11:41:37.126Z,20.80
2019-01-02T11:45:02.111Z,16.23
2019-01-02T11:47:50.365Z,14.50
2019-01-02T11:50:39.060Z,12.07
2019-01-02T11:53:27.698Z,11.10
2019-01-02T11:56:15.934Z,11.00
2019-01-02T11:59:04.242Z,16.07
2019-01-02T12:01:52.530Z,13.70
2019-01-02T12:04:40.953Z,13.73
2019-01-02T12:07:29.581Z,11.50
2019-01-02T12:10:18.118Z,10.93
2019-01-02T12:13:07.080Z,13.20
2019-01-02T12:15:56.427Z,11.13
2019-01-02T12:18:44.560Z,12.67
2019-01-02T12:21:32.906Z,12.80
2019-01-02T12:24:21.813Z,6.53
2019-01-02T12:27:10.587Z,9.73
2019-01-02T12:29:58.641Z,5.10
2019-01-02T12:32:57.130Z,7.10
2019-01-02T12:35:45.614Z,7.23
2019-01-02T12:38:34.046Z,5.23
2019-01-02T12:41:22.964Z,7.43
2019-01-02T12:44:12.130Z,5.13
2019-01-02T12:47:00.914Z,5.73
2019-01-02T12:49:49.706Z,4.97
2019-01-02T12:52:38.555Z,8.33
2019-01-02T12:55:26.634Z,5.77
2019-01-02T12:58:16.467Z,6.00
2019-01-02T13:01:06.852Z,6.70
2019-01-02T13:04:34.327Z,5.73
2019-01-02T13:08:04.832Z,6.77
2019-01-02T13:11:01.330Z,5.83
2019-01-02T13:14:29.386Z,10.43
2019-01-02T13:17:35.030Z,7.37
2019-01-02T13:20:48.707Z,7.80
2019-01-02T13:24:09.767Z,6.70
2019-01-02T13:27:14.903Z,5.13
2019-01-02T13:30:47.702Z,5.53
2019-01-02T13:33:49.836Z,7.90
2019-01-02T13:36:48.166Z,7.00
2019-01-02T13:40:10.671Z,5.80
2019-01-02T13:43:23.334Z,4.93
2019-01-02T13:46:19.673Z,4.40
2019-01-02T13:50:02.734Z,9.43
2019-01-02T13:52:50.727Z,7.47
2019-01-02T13:55:38.709Z,4.23
2019-01-02T13:58:27.762Z,7.40
2019-01-02T14:01:16.510Z,3.80
2019-01-02T14:04:06.838Z,6.03
2019-01-02T14:06:55.029Z,8.13
2019-01-02T14:09:46.150Z,5.13
2019-01-02T14:12:35.058Z,6.43
2019-01-02T14:15:23.322Z,8.87
2019-01-02T14:18:13.394Z,3.17
2019-01-02T14:21:01.214Z,5.30
2019-01-02T14:23:49.450Z,5.40
2019-01-02T14:26:38.075Z,4.23
2019-01-02T14:29:26.321Z,5.23
2019-01-02T14:32:16.385Z,6.73
2019-01-02T14:35:04.781Z,6.53
2019-01-02T14:37:54.356Z,5.97
2019-01-02T14:40:42.813Z,3.50
2019-01-02T14:43:31.684Z,3.13
2019-01-02T14:46:20.232Z,5.87
2019-01-02T14:49:10.486Z,6.33
2019-01-02T14:51:58.888Z,4.03
2019-01-02T14:54:46.906Z,4.13
2019-01-02T14:57:35.298Z,7.13
2019-01-02T15:00:24.059Z,6.30
2019-01-02T15:03:12.886Z,6.50
2019-01-02T15:06:01.040Z,9.40
2019-01-02T15:08:49.618Z,5.03
2019-01-02T15:11:38.203Z,5.20
2019-01-02T15:14:26.767Z,5.97
2019-01-02T15:17:18.647Z,5.17
2019-01-02T15:20:08.604Z,6.10
2019-01-02T15:22:57.243Z,7.83
2019-01-02T15:25:45.038Z,5.20
2019-01-02T15:28:33.191Z,9.23
2019-01-02T15:31:21.586Z,3.40
2019-01-02T15:34:10.035Z,4.40
2019-01-02T15:36:58.323Z,6.73
2019-01-02T15:39:46.363Z,5.53
2019-01-02T15:42:34.810Z,5.23
2019-01-02T15:45:23.646Z,13.13
2019-01-02T15:48:12.087Z,6.77
2019-01-02T15:51:00.270Z,6.33
2019-01-02T15:53:52.251Z,6.93
2019-01-02T15:56:41.331Z,4.57
2019-01-02T15:59:29.946Z,7.07
2019-01-02T16:02:18.562Z,5.80
2019-01-02T16:05:09.919Z,8.03
2019-01-02T16:07:58.246Z,7.63
2019-01-02T16:10:47.379Z,7.20
2019-01-02T16:13:35.456Z,8.53
2019-01-02T16:16:24.508Z,6.53
2019-01-02T16:19:13.446Z,10.10
2019-01-02T16:22:01.740Z,9.67
2019-01-02T16:24:53.647Z,11.63
2019-01-02T16:27:41.691Z,8.30
2019-01-02T16:30:30.255Z,7.73
2019-01-02T16:33:18.527Z,8.07
2019-01-02T16:36:06.970Z,8.83
2019-01-02T16:38:56.203Z,5.03
2019-01-02T16:41:43.987Z,8.27
2019-01-02T16:44:32.479Z,13.40
2019-01-02T16:47:21.430Z,9.83
2019-01-02T16:50:10.095Z,6.40
2019-01-02T16:52:58.066Z,10.60
2019-01-02T16:55:46.626Z,8.00
2019-01-02T16:58:35.123Z,6.30
2019-01-02T17:01:23.891Z,10.40
2019-01-02T17:04:12.675Z,7.73
2019-01-02T17:07:01.098Z,8.57
2019-01-02T17:09:49.710Z,8.33
2019-01-02T17:12:38.889Z,7.37
2019-01-02T17:15:27.051Z,11.83
2019-01-02T17:18:16.031Z,10.70
2019-01-02T17:21:04.142Z,11.10
2019-01-02T17:23:52.569Z,6.77
2019-01-02T17:26:41.198Z,7.37
2019-01-02T17:29:29.474Z,12.53
2019-01-02T17:32:18.889Z,13.30
2019-01-02T17:35:08.146Z,11.87
2019-01-02T17:37:56.610Z,10.17
2019-01-02T17:40:45.217Z,11.30
2019-01-02T17:43:33.670Z,10.90
2019-01-02T17:46:23.292Z,16.83
2019-01-02T17:49:12.088Z,15.33
2019-01-02T17:52:00.738Z,15.03
2019-01-02T17:54:49.348Z,14.93
2019-01-02T17:57:36.889Z,15.77
2019-01-02T18:00:28.225Z,10.47
2019-01-02T18:03:16.318Z,11.10
2019-01-02T18:06:04.386Z,14.77
2019-01-02T18:08:52.818Z,11.30
2019-01-02T18:11:41.457Z,10.10
2019-01-02T18:14:29.429Z,11.13
2019-01-02T18:17:18.487Z,7.83
2019-01-02T18:20:08.661Z,13.30
2019-01-02T18:22:57.141Z,12.20
2019-01-02T18:25:45.898Z,11.73
2019-01-02T18:28:34.309Z,12.47
2019-01-02T18:31:22.843Z,12.60
2019-01-02T18:34:11.510Z,8.40
2019-01-02T18:36:59.711Z,11.03
2019-01-02T18:39:48.374Z,10.63
2019-01-02T18:42:36.474Z,12.93
2019-01-02T18:45:24.990Z,10.70
2019-01-02T18:48:12.950Z,11.30
2019-01-02T18:51:01.549Z,11.57
2019-01-02T18:53:49.590Z,9.70
2019-01-02T18:56:37.147Z,11.53
2019-01-02T18:59:25.670Z,14.80
2019-01-02T19:02:14.046Z,11.90
2019-01-02T19:05:04.196Z,15.30
2019-01-02T19:07:52.390Z,11.97
2019-01-02T19:10:40.675Z,11.83
2019-01-02T19:13:29.098Z,10.70
2019-01-02T19:16:21.519Z,17.23
2019-01-02T19:19:07.369Z,15.30
2019-01-02T19:21:55.634Z,10.37
2019-01-02T19:24:43.679Z,12.53
2019-01-02T19:27:32.434Z,16.07
2019-01-02T19:30:20.542Z,11.53
2019-01-02T19:33:08.662Z,14.30
2019-01-02T19:35:57.606Z,15.13
2019-01-02T19:38:45.682Z,16.83
2019-01-02T19:41:34.171Z,15.43
2019-01-02T19:44:23.266Z,13.67
2019-01-02T19:47:12.010Z,18.50
2019-01-02T19:50:00.948Z,17.67
2019-01-02T19:52:50.056Z,13.10
2019-01-02T19:55:38.080Z,19.50
2019-01-02T19:58:27.867Z,17.63
2019-01-02T20:01:16.868Z,15.93
2019-01-02T20:04:05.362Z,16.23
2019-01-02T20:06:53.590Z,13.90
2019-01-02T20:09:42.502Z,15.00
2019-01-02T20:12:30.562Z,14.50
2019-01-02T20:15:19.763Z,17.30
2019-01-02T20:18:08.263Z,19.60
2019-01-02T20:20:57.511Z,14.87
2019-01-02T20:23:46.348Z,14.53
2019-01-02T20:26:34.938Z,15.07
2019-01-02T20:29:23.289Z,16.27
2019-01-02T20:32:11.435Z,20.27
2019-01-02T20:34:59.466Z,20.00
2019-01-02T20:37:48.561Z,19.50
2019-01-02T20:40:37.290Z,14.80
2019-01-02T20:43:25.133Z,15.00
2019-01-02T20:46:13.625Z,42.07
2019-01-02T20:49:01.963Z,47.63
2019-01-02T20:54:34.071Z,28.40
2019-01-02T20:57:36.030Z,26.73
2019-01-02T21:00:36.063Z,22.37
2019-01-02T21:03:36.447Z,22.87
2019-01-02T21:06:36.888Z,32.80
2019-01-02T21:09:39.487Z,26.47
2019-01-02T21:12:40.688Z,24.77
2019-01-02T21:16:00.723Z,30.90
2019-01-02T21:19:01.669Z,23.60
2019-01-02T21:22:03.081Z,17.57
2019-01-02T21:25:04.963Z,17.50
2019-01-02T21:28:28.537Z,15.20
2019-01-02T21:31:30.242Z,19.40
2019-01-02T21:34:31.139Z,16.53
2019-01-02T21:47:54.455Z,25.80
2019-01-02T21:54:41.062Z,22.50
2019-01-02T22:04:58.490Z,24.80
2019-01-02T22:08:00.319Z,22.50
2019-01-02T22:11:01.286Z,16.23
2019-01-02T22:14:02.319Z,17.77
2019-01-02T22:17:03.979Z,16.37
2019-01-02T22:23:35.679Z,15.47
2019-01-02T22:26:37.064Z,15.07
2019-01-02T22:29:38.686Z,17.00
2019-01-02T22:32:40.034Z,20.37
2019-01-02T22:35:40.515Z,18.93
2019-01-02T22:38:41.587Z,14.50
2019-01-02T22:41:42.712Z,13.30
2019-01-02T22:44:45.936Z,16.73
2019-01-02T22:50:54.670Z,15.83
2019-01-02T22:53:57.903Z,12.23
2019-01-02T22:56:59.071Z,14.90
2019-01-02T23:03:35.670Z,12.70
2019-01-02T23:06:50.254Z,12.70
2019-01-02T23:10:10.776Z,12.70
2019-01-02T23:13:30.576Z,13.10
2019-01-02T23:20:14.250Z,19.10
2019-01-02T23:23:34.943Z,15.07
2019-01-02T23:27:01.178Z,13.30
2019-01-02T23:30:21.850Z,15.67
2019-01-02T23:33:47.244Z,25.27
2019-01-02T23:40:31.770Z,11.63
2019-01-02T23:47:32.512Z,13.53
2019-01-02T23:50:52.699Z,19.57
2019-01-02T23:54:12.956Z,16.10
2019-01-02T23:57:39.387Z,17.73
